Time;durP1;ratioP1;P1;durP2;ratioP2;P2;SDS_P1;SDS_P2;PMS_P1;PMS_P2;Temp;Humidity;BMP_temperature;BMP_pressure;BME280_temperature;BME280_humidity;BME280_pressure;Samples;Min_cycle;Max_cycle;Signal;HPM_P1;HPM_P2
2022/10/09 00:01:20;;;;;;;3.70;1.77;;;10.00;99.90;;;;;;5007396;28;20259;-70
2022/10/09 00:03:48;;;;;;;7.40;2.50;;;10.00;99.90;;;;;;5003721;28;20231;-72
2022/10/09 00:06:18;;;;;;;7.13;2.83;;;9.90;99.90;;;;;;4987427;28;20283;-71
2022/10/09 00:08:44;;;;;;;5.67;2.07;;;9.90;99.90;;;;;;5003682;28;20201;-72
2022/10/09 00:11:18;;;;;;;5.40;2.00;;;10.00;99.90;;;;;;5006652;28;20460;-71
2022/10/09 00:13:44;;;;;;;5.47;2.20;;;10.00;99.90;;;;;;5003207;28;20209;-71
2022/10/09 00:16:12;;;;;;;7.63;2.37;;;9.90;99.90;;;;;;5010073;28;20711;-71
2022/10/09 00:18:38;;;;;;;7.73;1.90;;;9.90;99.90;;;;;;5008782;28;20235;-71
2022/10/09 00:21:05;;;;;;;8.47;2.67;;;9.90;99.90;;;;;;5004663;28;20593;-71
2022/10/09 00:23:31;;;;;;;6.77;2.23;;;9.90;99.90;;;;;;4987512;28;20300;-72
2022/10/09 00:25:59;;;;;;;4.40;2.40;;;9.90;99.90;;;;;;5008544;28;20308;-72
2022/10/09 00:28:27;;;;;;;7.13;2.87;;;9.90;99.90;;;;;;4990560;28;20233;-71
2022/10/09 00:30:52;;;;;;;4.70;1.83;;;9.80;99.90;;;;;;5001537;28;20216;-71
2022/10/09 00:33:19;;;;;;;6.40;2.30;;;9.80;99.90;;;;;;5011385;28;20177;-71
2022/10/09 00:35:45;;;;;;;6.60;2.40;;;9.80;99.90;;;;;;5007655;28;20300;-72
2022/10/09 00:38:11;;;;;;;7.77;2.70;;;9.80;99.90;;;;;;5005159;28;20582;-71
2022/10/09 00:40:37;;;;;;;5.63;1.70;;;9.80;99.90;;;;;;5004635;28;20686;-72
2022/10/09 00:43:12;;;;;;;7.17;2.67;;;9.80;99.90;;;;;;5008714;28;20210;-73
2022/10/09 00:45:38;;;;;;;7.77;2.27;;;9.80;99.90;;;;;;4984203;28;20215;-71
2022/10/09 00:48:09;;;;;;;5.10;1.50;;;9.80;99.90;;;;;;5003296;28;20178;-72
2022/10/09 00:50:42;;;;;;;9.10;2.33;;;9.80;99.90;;;;;;5006943;28;20264;-72
2022/10/09 00:53:11;;;;;;;7.33;1.87;;;9.80;99.90;;;;;;5007235;28;20201;-71
2022/10/09 00:55:38;;;;;;;3.33;1.77;;;9.70;99.90;;;;;;5004513;28;20886;-72
2022/10/09 00:58:04;;;;;;;10.83;2.33;;;9.80;99.90;;;;;;5005185;28;20205;-72
2022/10/09 01:00:30;;;;;;;5.77;1.97;;;9.70;99.90;;;;;;5008968;28;20177;-72
2022/10/09 01:02:55;;;;;;;6.53;2.23;;;9.70;99.90;;;;;;5005096;28;20248;-71
2022/10/09 01:05:28;;;;;;;6.47;2.53;;;9.70;99.90;;;;;;4987342;28;20296;-72
2022/10/09 01:08:03;;;;;;;7.73;2.33;;;9.70;99.90;;;;;;4991538;28;20240;-70
2022/10/09 01:10:55;;;;;;;7.50;2.57;;;9.70;99.90;;;;;;5007509;28;20262;-72
2022/10/09 01:13:41;;;;;;;7.17;2.20;;;9.70;99.90;;;;;;5003256;28;20209;-71
2022/10/09 01:16:28;;;;;;;7.17;2.33;;;9.60;99.90;;;;;;4989011;28;20715;-71
2022/10/09 01:19:20;;;;;;;9.00;1.83;;;9.60;99.90;;;;;;4985988;28;20212;-71
2022/10/09 01:22:01;;;;;;;7.00;2.53;;;9.70;99.90;;;;;;4981719;28;20185;-71
2022/10/09 01:24:39;;;;;;;5.73;2.07;;;9.60;99.90;;;;;;5005737;28;20201;-71
2022/10/09 01:27:14;;;;;;;8.47;2.20;;;9.60;99.90;;;;;;5006609;28;20214;-71
2022/10/09 01:29:49;;;;;;;4.40;2.13;;;9.60;99.90;;;;;;5001262;28;20235;-71
2022/10/09 01:32:22;;;;;;;5.80;1.80;;;9.60;99.90;;;;;;5006713;28;20250;-71
2022/10/09 01:34:49;;;;;;;6.97;2.20;;;9.60;99.90;;;;;;5002454;28;20205;-71
2022/10/09 01:37:16;;;;;;;7.57;2.40;;;9.60;99.90;;;;;;5005923;28;20205;-71
2022/10/09 01:39:44;;;;;;;7.27;1.90;;;9.60;99.90;;;;;;4983764;28;20212;-71
2022/10/09 01:42:11;;;;;;;6.77;2.00;;;9.60;99.90;;;;;;5008757;28;20660;-71
2022/10/09 01:44:37;;;;;;;6.90;2.47;;;9.50;99.90;;;;;;5006779;28;20594;-71
2022/10/09 01:47:05;;;;;;;7.30;2.03;;;9.50;99.90;;;;;;5002672;28;20213;-71
2022/10/09 01:49:52;;;;;;;5.23;2.47;;;9.50;99.90;;;;;;5003113;28;20204;-71
2022/10/09 01:52:27;;;;;;;6.00;2.10;;;9.50;99.90;;;;;;5001983;28;20250;-71
2022/10/09 01:55:05;;;;;;;6.57;2.27;;;9.50;99.90;;;;;;4987440;28;20212;-70
2022/10/09 01:57:54;;;;;;;9.17;2.27;;;9.50;99.90;;;;;;5001631;28;20212;-71
2022/10/09 02:00:20;;;;;;;3.10;1.83;;;9.50;99.90;;;;;;4999787;28;20173;-72
2022/10/09 02:02:48;;;;;;;4.67;1.80;;;9.50;99.90;;;;;;5004652;28;20208;-71
2022/10/09 02:05:23;;;;;;;6.37;2.17;;;9.50;99.90;;;;;;5003096;28;20303;-71
2022/10/09 02:07:49;;;;;;;8.97;2.37;;;9.50;99.90;;;;;;5002079;28;20278;-72
2022/10/09 02:10:17;;;;;;;7.90;1.97;;;9.50;99.90;;;;;;5006059;28;20205;-72
2022/10/09 02:12:49;;;;;;;9.67;2.30;;;9.50;99.90;;;;;;5003037;28;20209;-72
2022/10/09 02:15:15;;;;;;;7.20;2.43;;;9.50;99.90;;;;;;5006204;28;20205;-72
2022/10/09 02:17:46;;;;;;;8.43;2.47;;;9.50;99.90;;;;;;5008001;28;20715;-71
2022/10/09 02:20:20;;;;;;;8.40;2.90;;;9.50;99.90;;;;;;5004428;28;20240;-71
2022/10/09 02:22:47;;;;;;;10.87;2.17;;;9.50;99.90;;;;;;5001078;28;20205;-72
2022/10/09 02:25:13;;;;;;;8.67;2.13;;;9.40;99.90;;;;;;5012264;28;20226;-72
2022/10/09 02:27:38;;;;;;;10.40;2.60;;;9.40;99.90;;;;;;5010169;28;20291;-71
2022/10/09 02:30:07;;;;;;;6.50;1.57;;;9.40;99.90;;;;;;5006543;28;20178;-72
2022/10/09 02:32:33;;;;;;;8.77;2.03;;;9.40;99.90;;;;;;5010477;28;20679;-71
2022/10/09 02:34:59;;;;;;;9.40;2.60;;;9.40;99.90;;;;;;5004442;28;20296;-72
2022/10/09 02:37:24;;;;;;;6.27;2.10;;;9.40;99.90;;;;;;4998983;28;20313;-71
2022/10/09 02:39:50;;;;;;;11.03;1.93;;;9.30;99.90;;;;;;5002148;28;20640;-70
2022/10/09 02:42:15;;;;;;;6.33;2.37;;;9.40;99.90;;;;;;5003013;28;20190;-71
2022/10/09 02:44:41;;;;;;;5.07;1.83;;;9.30;99.90;;;;;;5005440;28;20307;-72
2022/10/09 02:47:07;;;;;;;7.73;2.00;;;9.40;99.90;;;;;;5003157;28;20213;-71
2022/10/09 02:49:32;;;;;;;7.43;2.50;;;9.30;99.90;;;;;;5002726;28;20276;-71
2022/10/09 02:51:58;;;;;;;8.03;2.37;;;9.40;99.90;;;;;;4986040;28;20232;-72
2022/10/09 02:54:24;;;;;;;5.90;2.23;;;9.30;99.90;;;;;;4990083;28;20284;-72
2022/10/09 02:56:49;;;;;;;7.57;2.20;;;9.30;99.90;;;;;;5002606;28;20213;-71
2022/10/09 02:59:15;;;;;;;10.03;2.43;;;9.30;99.90;;;;;;5001935;28;20213;-72
2022/10/09 03:01:40;;;;;;;8.20;2.53;;;9.20;99.90;;;;;;5005377;28;20209;-72
2022/10/09 03:04:06;;;;;;;9.17;2.07;;;9.20;99.90;;;;;;5002534;28;20232;-71
2022/10/09 03:06:33;;;;;;;6.20;2.60;;;9.20;99.90;;;;;;4985200;28;20236;-71
2022/10/09 03:08:58;;;;;;;10.13;2.40;;;9.20;99.90;;;;;;5004092;28;20261;-71
2022/10/09 03:11:24;;;;;;;10.10;2.60;;;9.10;99.90;;;;;;4986995;28;20220;-71
2022/10/09 03:13:50;;;;;;;5.43;2.03;;;9.10;99.90;;;;;;5002195;28;20261;-70
2022/10/09 03:16:18;;;;;;;12.13;2.70;;;9.10;99.90;;;;;;5030362;23;20709;-69
2022/10/09 03:18:45;;;;;;;4.63;1.90;;;9.10;99.90;;;;;;5039727;28;20259;-70
2022/10/09 03:21:13;;;;;;;9.30;2.33;;;9.10;99.90;;;;;;5033276;28;20268;-70
2022/10/09 03:23:40;;;;;;;10.67;2.50;;;9.10;99.90;;;;;;5029609;28;20204;-70
2022/10/09 03:26:08;;;;;;;5.70;2.10;;;9.10;99.90;;;;;;5048317;28;20220;-70
2022/10/09 03:28:39;;;;;;;7.87;2.20;;;9.10;99.90;;;;;;5036919;28;20208;-70
2022/10/09 03:31:05;;;;;;;6.27;2.43;;;9.10;99.90;;;;;;5038365;28;20276;-69
2022/10/09 03:33:31;;;;;;;9.00;2.17;;;9.10;99.90;;;;;;5038188;28;20179;-70
2022/10/09 03:35:56;;;;;;;8.57;2.17;;;9.00;99.90;;;;;;5032035;28;20201;-70
2022/10/09 03:38:22;;;;;;;10.63;3.07;;;9.00;99.90;;;;;;5017289;28;20261;-71
2022/10/09 03:40:48;;;;;;;8.57;2.50;;;9.00;99.90;;;;;;5029269;28;20291;-72
2022/10/09 03:43:13;;;;;;;9.10;2.43;;;9.00;99.90;;;;;;5038989;28;20199;-71
2022/10/09 03:45:40;;;;;;;4.77;2.00;;;9.00;99.90;;;;;;5030685;28;20203;-70
2022/10/09 03:48:06;;;;;;;6.87;2.00;;;9.00;99.90;;;;;;5008331;28;20221;-70
2022/10/09 03:50:31;;;;;;;8.27;2.10;;;9.00;99.90;;;;;;5037183;28;20202;-71
2022/10/09 03:52:57;;;;;;;12.27;2.60;;;9.00;99.90;;;;;;5014944;28;20212;-71
2022/10/09 03:55:23;;;;;;;9.47;2.53;;;9.00;99.90;;;;;;5029996;28;20634;-70
2022/10/09 03:57:48;;;;;;;7.40;2.50;;;9.00;99.90;;;;;;5029343;28;20691;-72
2022/10/09 04:00:14;;;;;;;6.93;2.40;;;8.90;99.90;;;;;;5038231;28;20553;-70
2022/10/09 04:02:39;;;;;;;8.53;2.63;;;9.00;99.90;;;;;;5030679;28;20576;-71
2022/10/09 04:05:05;;;;;;;9.47;2.23;;;8.90;99.90;;;;;;5025449;28;20656;-72
2022/10/09 04:07:31;;;;;;;6.97;2.67;;;8.90;99.90;;;;;;5030176;28;20267;-71
2022/10/09 04:09:56;;;;;;;5.27;2.60;;;8.90;99.90;;;;;;5031053;28;20220;-71
2022/10/09 04:12:22;;;;;;;8.40;1.97;;;8.80;99.90;;;;;;5018484;28;20180;-71
2022/10/09 04:14:48;;;;;;;8.80;2.70;;;8.80;99.90;;;;;;5029210;28;20208;-71
2022/10/09 04:17:13;;;;;;;9.37;3.10;;;8.70;99.90;;;;;;5020078;28;20652;-71
2022/10/09 04:19:39;;;;;;;6.47;2.23;;;8.80;99.90;;;;;;5030516;28;20305;-71
2022/10/09 04:22:04;;;;;;;10.73;2.80;;;8.80;99.90;;;;;;5007659;28;20710;-72
2022/10/09 04:24:30;;;;;;;10.43;2.53;;;8.80;99.90;;;;;;5036066;28;20623;-71
2022/10/09 04:26:55;;;;;;;9.57;2.63;;;8.80;99.90;;;;;;5015145;28;20713;-71
2022/10/09 04:29:21;;;;;;;11.20;2.93;;;8.80;99.90;;;;;;5029934;28;20193;-71
2022/10/09 04:31:47;;;;;;;8.70;2.67;;;8.80;99.90;;;;;;5004068;28;20291;-71
2022/10/09 04:34:13;;;;;;;7.93;2.33;;;8.80;99.90;;;;;;5038210;28;20287;-71
2022/10/09 04:36:38;;;;;;;4.63;2.20;;;8.80;99.90;;;;;;5012894;28;20238;-71
2022/10/09 04:39:04;;;;;;;9.03;2.33;;;8.80;99.90;;;;;;5003651;28;20185;-70
2022/10/09 04:41:29;;;;;;;10.87;2.80;;;8.80;99.90;;;;;;5033970;28;20210;-70
2022/10/09 04:43:55;;;;;;;7.77;1.97;;;8.80;99.90;;;;;;5032559;28;20208;-70
2022/10/09 04:46:22;;;;;;;8.83;2.67;;;8.70;99.90;;;;;;5029950;28;20633;-70
2022/10/09 04:48:48;;;;;;;8.93;2.47;;;8.80;99.90;;;;;;5021522;28;20184;-71
2022/10/09 04:51:15;;;;;;;9.07;2.43;;;8.70;99.90;;;;;;5038498;28;20184;-71
2022/10/09 04:53:42;;;;;;;6.37;2.80;;;8.70;99.90;;;;;;5030501;28;20582;-71
2022/10/09 04:56:11;;;;;;;7.47;2.17;;;8.70;99.90;;;;;;5022233;28;20224;-71
2022/10/09 04:58:39;;;;;;;8.37;2.10;;;8.70;99.90;;;;;;5016547;28;20873;-71
2022/10/09 05:01:07;;;;;;;10.57;2.83;;;8.70;99.90;;;;;;5033685;28;20701;-70
2022/10/09 05:03:32;;;;;;;6.17;2.30;;;8.70;99.90;;;;;;5027202;28;20267;-71
2022/10/09 05:06:02;;;;;;;6.80;2.07;;;8.60;99.90;;;;;;5022946;28;20635;-71
2022/10/09 05:08:30;;;;;;;6.27;2.60;;;8.60;99.90;;;;;;5037489;28;20203;-70
2022/10/09 05:11:04;;;;;;;10.30;2.60;;;8.60;99.90;;;;;;5011422;28;20296;-70
2022/10/09 05:13:33;;;;;;;13.87;3.00;;;8.60;99.90;;;;;;5010842;28;20199;-71
2022/10/09 05:16:04;;;;;;;8.93;2.33;;;8.60;99.90;;;;;;5017561;28;20706;-71
2022/10/09 05:18:30;;;;;;;5.33;2.30;;;8.60;99.90;;;;;;5033955;28;20201;-71
2022/10/09 05:20:56;;;;;;;7.87;2.43;;;8.70;99.90;;;;;;5008667;28;20173;-70
2022/10/09 05:23:21;;;;;;;9.63;2.87;;;8.70;99.90;;;;;;5027672;28;20199;-72
2022/10/09 05:25:59;;;;;;;8.60;3.00;;;8.70;99.90;;;;;;5030147;28;20639;-71
2022/10/09 05:28:25;;;;;;;9.37;2.60;;;8.70;99.90;;;;;;5015172;28;20686;-70
2022/10/09 05:30:51;;;;;;;9.23;2.60;;;8.70;99.90;;;;;;5022102;28;20211;-71
2022/10/09 05:33:16;;;;;;;11.73;3.00;;;8.70;99.90;;;;;;5015548;28;20707;-70
2022/10/09 05:35:54;;;;;;;5.33;2.07;;;8.80;99.90;;;;;;5013924;28;20690;-71
2022/10/09 05:38:20;;;;;;;11.23;2.93;;;8.80;99.90;;;;;;5026009;28;20696;-71
2022/10/09 05:40:54;;;;;;;5.67;2.57;;;8.90;99.90;;;;;;5026989;28;20219;-71
2022/10/09 05:43:29;;;;;;;8.20;2.37;;;8.80;99.90;;;;;;5029028;28;20207;-71
2022/10/09 05:45:55;;;;;;;10.80;3.10;;;8.90;99.90;;;;;;5026892;28;20239;-71
2022/10/09 05:48:21;;;;;;;6.27;2.50;;;9.00;99.90;;;;;;5025871;28;20761;-72
2022/10/09 05:50:47;;;;;;;7.40;2.60;;;9.00;99.90;;;;;;5031797;28;20212;-71
2022/10/09 05:53:13;;;;;;;9.77;2.97;;;9.10;99.90;;;;;;5014941;28;20203;-70
2022/10/09 05:55:39;;;;;;;6.77;2.43;;;9.20;99.90;;;;;;5005216;28;20247;-71
2022/10/09 05:58:04;;;;;;;10.30;2.80;;;9.60;99.90;;;;;;5029672;28;20266;-71
2022/10/09 06:00:30;;;;;;;7.30;2.63;;;11.30;99.90;;;;;;5034740;28;20227;-72
2022/10/09 06:02:56;;;;;;;6.13;2.37;;;12.60;99.90;;;;;;5027812;28;20219;-71
2022/10/09 06:05:22;;;;;;;6.30;2.10;;;13.60;99.90;;;;;;5032363;28;20208;-71
2022/10/09 06:07:47;;;;;;;6.50;2.60;;;14.40;99.90;;;;;;5014707;28;20664;-71
2022/10/09 06:10:13;;;;;;;7.50;2.47;;;15.00;99.90;;;;;;5032405;28;20203;-71
2022/10/09 06:12:38;;;;;;;3.78;1.73;;;15.70;99.90;;;;;;5025465;28;20184;-71
2022/10/09 06:15:05;;;;;;;4.45;2.40;;;16.40;99.90;;;;;;5005568;28;20702;-71
2022/10/09 06:17:32;;;;;;;6.40;2.35;;;17.20;99.90;;;;;;5035058;28;21074;-71
2022/10/09 06:19:57;;;;;;;4.22;1.95;;;17.70;99.90;;;;;;5027494;28;20589;-71
2022/10/09 06:22:23;;;;;;;5.78;2.25;;;18.20;99.90;;;;;;5024735;28;20238;-72
2022/10/09 06:24:48;;;;;;;8.63;2.50;;;18.10;99.90;;;;;;5016243;28;20589;-71
2022/10/09 06:27:14;;;;;;;6.70;2.28;;;18.50;99.90;;;;;;5011224;28;20195;-71
2022/10/09 06:29:39;;;;;;;4.10;2.03;;;19.20;99.90;;;;;;5025465;28;20565;-73
2022/10/09 06:32:05;;;;;;;5.00;2.05;;;19.30;99.90;;;;;;5018920;28;20201;-73
2022/10/09 06:34:30;;;;;;;5.00;2.30;;;19.40;99.90;;;;;;5035303;28;20206;-72
2022/10/09 06:36:56;;;;;;;4.60;2.33;;;19.70;99.90;;;;;;5027646;28;20220;-71
2022/10/09 06:39:21;;;;;;;7.55;2.30;;;19.70;99.90;;;;;;5025519;28;20176;-72
2022/10/09 06:41:47;;;;;;;3.28;1.95;;;19.80;99.90;;;;;;5032053;28;20208;-72
2022/10/09 06:44:15;;;;;;;5.20;2.30;;;19.50;99.90;;;;;;5033296;28;20693;-72
2022/10/09 06:46:41;;;;;;;6.20;2.25;;;19.90;99.90;;;;;;5025724;28;20208;-72
2022/10/09 06:49:08;;;;;;;5.30;2.30;;;20.30;99.90;;;;;;5023549;28;20777;-72
2022/10/09 06:51:35;;;;;;;6.22;2.40;;;20.40;99.90;;;;;;5034875;28;20271;-73
2022/10/09 06:54:02;;;;;;;4.75;2.42;;;20.00;99.90;;;;;;5030011;28;20192;-72
2022/10/09 06:56:30;;;;;;;4.60;2.67;;;20.20;99.90;;;;;;5021905;28;20286;-71
2022/10/09 06:58:59;;;;;;;7.65;2.63;;;20.50;99.90;;;;;;5034837;28;20705;-72
2022/10/09 07:01:30;;;;;;;5.18;2.28;;;20.40;99.90;;;;;;5034270;28;20835;-72
2022/10/09 07:04:08;;;;;;;5.15;2.22;;;20.20;99.90;;;;;;5026973;28;20278;-72
2022/10/09 07:06:37;;;;;;;8.18;2.50;;;20.30;99.90;;;;;;5029825;28;20231;-73
2022/10/09 07:09:06;;;;;;;5.47;2.30;;;20.50;99.90;;;;;;5035785;28;20173;-71
2022/10/09 07:11:37;;;;;;;5.07;2.22;;;20.90;99.90;;;;;;5025650;28;20258;-72
2022/10/09 07:14:05;;;;;;;5.38;2.17;;;21.10;99.90;;;;;;5049234;28;20204;-73
2022/10/09 07:16:34;;;;;;;6.45;2.63;;;20.70;99.90;;;;;;5048637;28;20207;-73
2022/10/09 07:19:02;;;;;;;8.02;2.85;;;20.90;99.90;;;;;;5025205;28;20287;-72
2022/10/09 07:21:28;;;;;;;5.55;2.40;;;21.20;99.90;;;;;;5038104;28;20186;-73
2022/10/09 07:23:53;;;;;;;6.00;2.40;;;21.30;99.90;;;;;;5018255;28;20295;-73
2022/10/09 07:26:22;;;;;;;5.30;2.28;;;20.90;99.90;;;;;;5033214;28;20299;-72
2022/10/09 07:28:48;;;;;;;5.45;2.22;;;21.30;99.90;;;;;;5030258;28;20576;-72
2022/10/09 07:31:14;;;;;;;6.00;2.53;;;21.60;99.90;;;;;;5027200;28;20200;-71
2022/10/09 07:33:43;;;;;;;5.40;2.35;;;22.00;99.90;;;;;;5037133;28;20207;-71
2022/10/09 07:36:09;;;;;;;4.32;2.13;;;21.70;99.90;;;;;;5034958;28;20208;-71
2022/10/09 07:38:35;;;;;;;3.35;2.00;;;21.50;99.90;;;;;;5028691;28;20270;-72
2022/10/09 07:41:03;;;;;;;4.43;2.35;;;21.50;99.90;;;;;;5012975;28;20206;-72
2022/10/09 07:43:29;;;;;;;4.10;2.30;;;21.10;99.90;;;;;;5022248;28;20200;-71
2022/10/09 07:45:58;;;;;;;4.32;2.33;;;21.30;99.90;;;;;;5011705;28;20209;-70
2022/10/09 07:48:23;;;;;;;7.75;3.03;;;21.50;99.90;;;;;;5027165;28;20187;-70
2022/10/09 07:50:49;;;;;;;4.68;2.15;;;21.80;99.90;;;;;;5034299;28;20679;-71
2022/10/09 07:53:14;;;;;;;4.00;2.00;;;21.50;99.90;;;;;;5036938;28;20615;-71
2022/10/09 07:55:47;;;;;;;5.18;2.60;;;21.60;99.90;;;;;;5014958;28;20763;-71
2022/10/09 07:58:14;;;;;;;4.53;2.17;;;22.00;99.90;;;;;;5034896;28;20222;-71
2022/10/09 08:00:40;;;;;;;6.38;2.15;;;22.20;99.90;;;;;;5035925;28;20175;-72
2022/10/09 08:03:06;;;;;;;7.20;2.25;;;22.10;99.90;;;;;;5031425;28;20181;-71
2022/10/09 08:05:32;;;;;;;4.60;1.77;;;21.40;99.90;;;;;;5007891;28;20250;-71
2022/10/09 08:07:57;;;;;;;7.07;2.53;;;21.20;99.90;;;;;;5035770;28;20220;-71
2022/10/09 08:10:23;;;;;;;8.50;2.35;;;21.10;99.90;;;;;;5034947;28;20217;-71
2022/10/09 08:12:48;;;;;;;4.47;2.25;;;21.40;99.90;;;;;;5026575;28;20213;-70
2022/10/09 08:15:14;;;;;;;4.07;1.80;;;20.90;99.90;;;;;;5028091;28;20179;-71
2022/10/09 08:17:40;;;;;;;5.85;1.98;;;21.00;99.90;;;;;;5035972;28;20228;-71
2022/10/09 08:20:06;;;;;;;6.70;2.42;;;20.90;99.90;;;;;;5012659;28;20235;-71
2022/10/09 08:22:32;;;;;;;12.75;2.65;;;20.70;99.90;;;;;;5025218;28;20200;-71
2022/10/09 08:24:58;;;;;;;6.07;2.13;;;21.10;99.90;;;;;;5037588;28;20204;-71
2022/10/09 08:27:23;;;;;;;7.88;2.05;;;21.20;99.90;;;;;;5019030;28;20210;-72
2022/10/09 08:29:49;;;;;;;6.20;2.28;;;20.40;99.90;;;;;;5026574;28;20206;-70
2022/10/09 08:32:14;;;;;;;5.30;2.20;;;20.50;99.90;;;;;;5027558;28;20337;-70
2022/10/09 08:34:40;;;;;;;5.90;2.33;;;20.60;99.90;;;;;;5036387;28;20211;-71
2022/10/09 08:37:05;;;;;;;7.90;2.72;;;20.10;99.90;;;;;;5013322;28;20224;-70
2022/10/09 08:39:31;;;;;;;7.40;2.42;;;20.60;99.90;;;;;;5028641;28;20638;-71
2022/10/09 08:42:00;;;;;;;7.43;2.30;;;20.50;99.90;;;;;;5035979;28;20682;-71
2022/10/09 08:44:36;;;;;;;5.00;1.85;;;20.20;99.90;;;;;;5034977;28;20204;-71
2022/10/09 08:47:17;;;;;;;13.30;2.83;;;20.30;99.90;;;;;;5026941;28;20244;-71
2022/10/09 08:49:51;;;;;;;10.68;2.63;;;20.00;99.90;;;;;;5028116;28;20199;-70
2022/10/09 08:52:25;;;;;;;6.43;2.60;;;19.90;99.90;;;;;;5037152;28;20342;-70
2022/10/09 08:54:54;;;;;;;11.00;2.80;;;19.70;99.90;;;;;;5027647;28;20208;-71
2022/10/09 08:57:21;;;;;;;7.45;2.55;;;19.70;99.90;;;;;;5026266;28;20196;-70
2022/10/09 08:59:47;;;;;;;6.22;2.50;;;19.80;99.90;;;;;;5033055;28;20744;-71
2022/10/09 09:02:43;;;;;;;5.50;2.10;;;19.80;99.90;;;;;;5010933;28;20217;-70
2022/10/09 09:05:17;;;;;;;11.05;2.95;;;20.00;99.90;;;;;;5025719;28;20258;-70
2022/10/09 09:07:54;;;;;;;8.25;2.65;;;20.00;99.90;;;;;;5016120;28;20219;-70
2022/10/09 09:10:37;;;;;;;9.77;2.45;;;20.00;99.90;;;;;;5029286;28;20237;-70
2022/10/09 09:13:38;;;;;;;8.30;2.67;;;19.70;99.90;;;;;;5026096;28;20559;-71
2022/10/09 09:16:03;;;;;;;7.07;2.25;;;19.60;99.90;;;;;;5008044;28;20269;-71
2022/10/09 09:18:43;;;;;;;5.47;2.50;;;19.30;99.90;;;;;;5062342;22;20274;-73
2022/10/09 09:21:34;;;;;;;8.05;2.42;;;19.10;99.90;;;;;;5050807;28;20176;-72
2022/10/09 09:24:04;;;;;;;4.97;2.33;;;19.40;99.90;;;;;;5036923;28;20212;-72
2022/10/09 09:26:29;;;;;;;5.85;2.10;;;19.60;99.90;;;;;;5048916;28;20242;-72
2022/10/09 09:29:01;;;;;;;8.63;2.78;;;19.70;99.90;;;;;;5044848;28;20595;-72
2022/10/09 09:31:30;;;;;;;10.15;2.47;;;19.80;99.90;;;;;;5039081;28;20230;-72
2022/10/09 09:34:11;;;;;;;6.07;2.28;;;19.80;99.90;;;;;;5045232;28;20208;-70
2022/10/09 09:36:42;;;;;;;7.90;2.65;;;19.70;99.90;;;;;;5041905;28;20202;-71
2022/10/09 09:39:12;;;;;;;8.82;3.55;;;19.20;99.90;;;;;;5043497;28;20690;-71
2022/10/09 09:41:40;;;;;;;10.57;2.63;;;19.30;99.90;;;;;;5028354;28;20207;-71
2022/10/09 09:44:12;;;;;;;6.20;2.38;;;19.00;99.90;;;;;;5046391;28;20213;-71
2022/10/09 09:46:39;;;;;;;7.82;2.60;;;19.20;99.90;;;;;;5040390;28;20222;-72
2022/10/09 09:49:16;;;;;;;7.28;2.42;;;19.10;99.90;;;;;;5041110;28;20209;-71
2022/10/09 09:51:41;;;;;;;7.13;2.03;;;18.90;99.90;;;;;;5048630;28;20175;-71
2022/10/09 09:54:16;;;;;;;4.88;1.98;;;19.10;99.90;;;;;;5046273;28;20177;-71
2022/10/09 09:56:44;;;;;;;5.18;2.00;;;19.30;99.90;;;;;;5038719;28;20310;-71
2022/10/09 09:59:36;;;;;;;6.05;2.00;;;19.20;99.90;;;;;;5026443;28;20702;-71
2022/10/09 10:02:05;;;;;;;16.60;4.32;;;19.50;99.90;;;;;;5024403;28;20263;-71
2022/10/09 10:04:31;;;;;;;9.95;2.58;;;19.50;99.90;;;;;;5039272;28;20208;-71
2022/10/09 10:06:57;;;;;;;7.97;2.00;;;18.80;99.90;;;;;;5042922;28;20302;-71
2022/10/09 10:09:22;;;;;;;8.90;2.95;;;18.70;99.90;;;;;;5048841;28;20275;-72
2022/10/09 10:11:57;;;;;;;11.02;2.83;;;18.90;99.90;;;;;;5043477;28;20211;-72
2022/10/09 10:14:24;;;;;;;6.90;2.13;;;19.10;99.90;;;;;;5042298;28;20207;-71
2022/10/09 10:16:52;;;;;;;8.75;2.38;;;18.90;99.90;;;;;;5027302;28;20203;-71
2022/10/09 10:19:24;;;;;;;6.10;2.38;;;19.00;99.90;;;;;;5040548;28;20215;-71
2022/10/09 10:21:58;;;;;;;9.27;2.38;;;19.30;99.90;;;;;;5041290;28;20247;-71
2022/10/09 10:24:41;;;;;;;9.63;1.95;;;19.90;99.90;;;;;;5025398;28;20171;-72
2022/10/09 10:27:21;;;;;;;5.97;1.92;;;20.00;99.90;;;;;;5043583;28;20294;-71
2022/10/09 10:29:50;;;;;;;6.72;1.73;;;19.90;99.90;;;;;;5029966;28;20212;-72
2022/10/09 10:32:20;;;;;;;11.48;4.30;;;19.80;99.90;;;;;;5042324;28;20206;-72
2022/10/09 10:34:54;;;;;;;15.18;5.57;;;19.60;99.90;;;;;;5041031;28;20199;-71
2022/10/09 10:37:53;;;;;;;6.53;1.60;;;20.00;99.90;;;;;;5043632;28;20200;-71
2022/10/09 10:40:25;;;;;;;7.82;2.78;;;20.10;99.90;;;;;;5041221;28;20674;-71
2022/10/09 10:43:05;;;;;;;9.57;2.42;;;20.30;99.90;;;;;;5041574;28;20269;-70
2022/10/09 10:45:53;;;;;;;6.90;2.20;;;20.20;99.90;;;;;;5048575;28;20167;-72
2022/10/09 10:48:27;;;;;;;6.57;2.10;;;20.20;99.90;;;;;;5045946;28;20296;-72
2022/10/09 10:51:32;;;;;;;6.50;2.70;;;20.40;99.90;;;;;;5046264;28;20209;-71
2022/10/09 10:54:06;;;;;;;6.88;2.03;;;20.50;99.90;;;;;;5028838;28;20204;-71
2022/10/09 10:56:39;;;;;;;8.02;1.85;;;20.40;99.90;;;;;;5039737;28;20210;-70
2022/10/09 10:59:31;;;;;;;7.20;2.25;;;20.00;99.90;;;;;;5047212;28;20215;-71
2022/10/09 11:02:08;;;;;;;3.45;1.55;;;19.90;99.90;;;;;;5027291;28;20216;-71
2022/10/09 11:04:44;;;;;;;5.85;1.77;;;19.60;99.90;;;;;;5043246;28;20207;-72
2022/10/09 11:07:30;;;;;;;6.13;1.58;;;19.80;99.90;;;;;;5035947;28;20227;-72
2022/10/09 11:09:59;;;;;;;6.32;1.77;;;19.50;99.90;;;;;;5055800;28;20276;-71
2022/10/09 11:12:37;;;;;;;7.40;1.67;;;19.50;99.90;;;;;;5058288;28;20657;-72
2022/10/09 11:15:36;;;;;;;4.43;1.50;;;19.50;99.90;;;;;;5016765;28;20213;-72
2022/10/09 11:18:08;;;;;;;7.75;1.50;;;19.60;99.90;;;;;;5055683;28;20219;-72
2022/10/09 11:20:50;;;;;;;8.98;1.75;;;19.60;99.90;;;;;;5044617;28;20552;-72
2022/10/09 11:23:49;;;;;;;3.83;1.13;;;19.70;99.90;;;;;;5027831;28;20211;-70
2022/10/09 11:27:05;;;;;;;5.93;1.85;;;19.80;99.90;;;;;;5046151;28;20200;-70
2022/10/09 11:30:01;;;;;;;5.18;1.63;;;19.70;99.90;;;;;;4997278;28;20578;-70
2022/10/09 11:32:47;;;;;;;7.20;2.22;;;18.70;99.90;;;;;;5043713;28;20282;-70
2022/10/09 11:35:21;;;;;;;6.28;1.27;;;18.40;99.90;;;;;;5052104;28;20204;-70
2022/10/09 11:38:04;;;;;;;6.10;1.65;;;18.20;99.90;;;;;;5031865;28;20219;-69
2022/10/09 11:40:34;;;;;;;5.85;1.63;;;18.40;99.90;;;;;;5042709;28;20207;-71
2022/10/09 11:43:25;;;;;;;4.05;1.50;;;18.70;99.90;;;;;;5052644;28;20218;-71
2022/10/09 11:45:53;;;;;;;4.15;1.40;;;18.40;99.90;;;;;;5029258;28;20223;-69
2022/10/09 11:49:02;;;;;;;7.43;1.52;;;18.50;99.90;;;;;;5046176;28;20833;-69
2022/10/09 11:51:49;;;;;;;6.50;1.70;;;18.00;99.90;;;;;;4965993;28;20212;-70
2022/10/09 11:54:17;;;;;;;6.30;1.85;;;18.00;99.90;;;;;;5050025;28;20704;-71
2022/10/09 11:57:00;;;;;;;4.95;1.60;;;18.10;99.90;;;;;;5026296;28;20219;-72
2022/10/09 11:59:35;;;;;;;9.88;1.85;;;17.80;99.90;;;;;;5048674;28;20215;-71
2022/10/09 12:02:25;;;;;;;6.15;1.50;;;17.90;99.90;;;;;;5055611;28;20234;-70
2022/10/09 12:04:52;;;;;;;6.15;1.95;;;18.10;99.90;;;;;;5057449;28;20211;-70
2022/10/09 12:07:37;;;;;;;3.97;1.50;;;18.40;99.90;;;;;;5038983;28;20218;-71
2022/10/09 12:10:07;;;;;;;6.90;1.67;;;17.70;99.90;;;;;;5059067;28;20212;-70
2022/10/09 12:12:36;;;;;;;3.13;1.10;;;17.80;99.90;;;;;;5047452;28;20172;-71
2022/10/09 12:15:25;;;;;;;5.05;1.58;;;17.60;99.90;;;;;;5051118;28;20187;-71
2022/10/09 12:17:51;;;;;;;4.50;1.48;;;17.50;99.90;;;;;;5035932;28;20290;-69
2022/10/09 12:20:20;;;;;;;3.83;1.60;;;17.60;99.90;;;;;;5056929;28;20684;-71
2022/10/09 12:22:51;;;;;;;5.25;1.45;;;17.60;99.90;;;;;;5047205;28;20683;-70
2022/10/09 12:25:31;;;;;;;5.32;1.65;;;17.50;99.90;;;;;;5034653;28;20272;-70
2022/10/09 12:27:59;;;;;;;6.93;1.40;;;17.90;99.90;;;;;;5051576;28;20271;-71
2022/10/09 12:30:35;;;;;;;5.70;1.45;;;17.90;99.90;;;;;;5058761;28;20184;-71
2022/10/09 12:33:21;;;;;;;6.45;2.13;;;17.80;99.90;;;;;;5038083;28;20231;-71
2022/10/09 12:35:58;;;;;;;6.25;1.63;;;17.70;99.90;;;;;;5029815;28;20219;-70
2022/10/09 12:38:26;;;;;;;9.05;2.10;;;17.20;99.90;;;;;;5046042;28;20211;-71
2022/10/09 12:40:54;;;;;;;5.07;1.52;;;17.10;99.90;;;;;;5040560;28;20209;-70
2022/10/09 12:43:22;;;;;;;7.65;1.60;;;17.20;99.90;;;;;;5026441;28;20211;-71
2022/10/09 12:45:49;;;;;;;8.02;1.80;;;17.30;99.90;;;;;;5036019;28;20208;-71
2022/10/09 12:48:21;;;;;;;3.88;1.38;;;17.40;99.90;;;;;;5053563;28;20210;-71
2022/10/09 12:50:48;;;;;;;9.50;1.80;;;17.60;99.90;;;;;;5035839;28;20238;-71
2022/10/09 12:53:17;;;;;;;8.07;2.13;;;17.50;99.90;;;;;;5053127;28;20208;-71
2022/10/09 12:55:45;;;;;;;6.72;1.73;;;17.60;99.90;;;;;;5028598;28;20589;-71
2022/10/09 12:58:18;;;;;;;6.65;2.03;;;17.80;99.90;;;;;;5047962;28;20279;-71
2022/10/09 13:00:46;;;;;;;5.03;1.55;;;17.60;99.90;;;;;;5026631;28;20180;-70
2022/10/09 13:03:44;;;;;;;5.25;1.65;;;17.70;99.90;;;;;;5046344;28;20194;-71
2022/10/09 13:06:16;;;;;;;5.40;1.35;;;17.50;99.90;;;;;;5025592;28;20259;-71
2022/10/09 13:08:43;;;;;;;6.10;1.63;;;17.00;99.90;;;;;;5049392;28;20222;-70